Casnovia, Michigan
Current Conditions -  °F | °C
As of 8:32 PM on Wednesday 26 Nov 2014 (Local Time) from KFFX Reporting Station
Overcast Overcast  
Wind Chill: -3°   Ceiling: 3300
Heat Index: -3°   Visibility: 10mi
Dew Point: -4°   Wind: 0mph
Humidity: 92%   Direction: NA
Pressure: 30.12"   Gusts: NA
Location:  43.23°N, 85.79°W
Report Text: KFFX 270132Z AUTO 00000KT 10SM OVC033 M03/M04 A3012 RMK AO2 T10271039
Loading
Personal Weather Stations






























Interactive Weather Map New forecast layout! Learn more

10-Day Weather Forecast

Advertisements
Track Severe Weather on mobile